Portada
METAR-TAF:

METAR-TAF

Aeroports :

Funafuti, Tuvalu

latitud: 08-31S, longitud: 179-13E, altitud: 1 m

Observació

L'informe es va fer fa 58 minuts, a les 18:00 UTC
Vent 1 kt amb direcció variable
Temperatura 28°C
Humitat 84%
Pressió 1008 hPa
Visibilitat 10 km o més
Escasses núvols a una alçada de 2000 ft
Núvols disperses a una alçada de 11000 ft
Cel ennuvolat a una alçada de 31000 ft

METAR: NGFU 141800Z VRB01KT 9999 FEW020 SCT110 BKN310 28/25 Q1008

Hora: 06:58 (18:58 UTC)

Pronòstic

L'informe es va fer fa 1 hora i 39 minuts, a les 17:19 UTC
Pronòstic vàlid del 14 a les 18 UTC al 15 a les 18 UTC
Vent 7 kt del Est
Visibilitat 10 km o més
Escasses núvols a una alçada de 2000 ft
Probabilitat 40% :
Temporalment
l' 15 a les 08 UTC al 15 a les 18 UTC
Visibilitat: 5000 m
Cel ennuvolat a una alçada de 1500 ft
Escasses núvols a una alçada de 1800 ft, Cumulonimbus.
tempesta, pluja

TAF: NGFU 141719Z 1418/1518 10007KT 9999 FEW020 PROB40 TEMPO 1508/1518 5000 TSRA BKN015 FEW018CB

Observacions i pronòstics meteorològics de més de 4000 aeroports (METAR i TAF).

Les estacions disponibles són els punts grocs i vermells al mapa.

Posi el ratolí al punt desitjat per veure el nom de l'estació.

Feu clic per veure les observacions i els pronòstics meteorològics.

Per canviar el mapa: feu clic els botons verds amb una creu de color negre per apropar; al botó verd amb un guió per allunyar la imatge; o en les fletxes verdes per a mapes adjacents.


METAR-TAF: